createdAt,value
2023-03-10T00:00:53.462Z,7.56
2023-03-10T00:03:19.958Z,7.53
2023-03-10T00:05:46.971Z,7.54
2023-03-10T00:08:13.788Z,7.50
2023-03-10T00:10:40.148Z,7.51
2023-03-10T00:13:07.675Z,7.55
2023-03-10T00:15:34.144Z,7.65
2023-03-10T00:18:00.648Z,7.87
2023-03-10T00:20:27.387Z,7.92
2023-03-10T00:22:54.217Z,7.85
2023-03-10T00:25:22.167Z,7.82
2023-03-10T00:27:48.635Z,7.83
2023-03-10T00:30:15.472Z,7.80
2023-03-10T00:32:41.934Z,7.83
2023-03-10T00:35:08.516Z,7.82
2023-03-10T00:37:38.769Z,7.83
2023-03-10T00:40:07.642Z,7.88
2023-03-10T00:42:34.384Z,7.87
2023-03-10T00:45:00.927Z,7.88
2023-03-10T00:47:27.349Z,7.87
2023-03-10T00:49:53.901Z,7.84
2023-03-10T00:52:20.264Z,7.83
2023-03-10T00:54:46.945Z,7.80
2023-03-10T00:57:13.661Z,7.81
2023-03-10T00:59:49.997Z,7.79
2023-03-10T01:02:18.764Z,7.79
2023-03-10T01:04:45.627Z,7.77
2023-03-10T01:07:12.538Z,7.77
2023-03-10T01:09:40.432Z,7.76
2023-03-10T01:12:07.324Z,7.77
2023-03-10T01:14:33.784Z,7.73
2023-03-10T01:17:00.258Z,7.66
2023-03-10T01:19:26.914Z,7.64
2023-03-10T01:21:54.586Z,7.58
2023-03-10T01:24:21.150Z,7.55
2023-03-10T01:26:49.725Z,7.51
2023-03-10T01:29:16.191Z,7.56
2023-03-10T01:31:43.042Z,7.47
2023-03-10T01:34:09.534Z,7.33
2023-03-10T01:36:36.153Z,7.29
2023-03-10T01:39:03.364Z,7.30
2023-03-10T01:41:30.195Z,7.25
2023-03-10T01:43:57.877Z,7.13
2023-03-10T01:46:27.453Z,7.13
2023-03-10T01:48:57.110Z,7.16
2023-03-10T01:51:24.401Z,7.21
2023-03-10T01:53:51.678Z,7.21
2023-03-10T01:56:18.165Z,7.22
2023-03-10T01:58:46.276Z,7.21
2023-03-10T02:01:14.909Z,7.17
2023-03-10T02:03:52.570Z,7.11
2023-03-10T02:06:20.918Z,7.12
2023-03-10T02:08:59.331Z,7.04
2023-03-10T02:11:27.715Z,7.01
2023-03-10T02:13:54.986Z,6.99
2023-03-10T02:16:22.137Z,7.02
2023-03-10T02:18:49.648Z,7.06
2023-03-10T02:21:33.918Z,7.18
2023-03-10T02:24:25.388Z,7.32
2023-03-10T02:27:03.375Z,7.44
2023-03-10T02:29:52.329Z,7.90
2023-03-10T02:32:25.100Z,8.02
2023-03-10T02:34:51.808Z,8.10
2023-03-10T02:37:24.080Z,8.18
2023-03-10T02:39:50.511Z,8.47
2023-03-10T02:42:18.503Z,8.45
2023-03-10T02:44:47.503Z,8.53
2023-03-10T02:47:13.936Z,8.71
2023-03-10T02:49:41.700Z,8.88
2023-03-10T02:52:16.306Z,8.84
2023-03-10T02:54:42.754Z,8.94
2023-03-10T02:57:09.127Z,9.02
2023-03-10T02:59:35.873Z,9.01
2023-03-10T03:02:02.250Z,8.93
2023-03-10T03:04:29.037Z,8.94
2023-03-10T03:06:55.525Z,8.93
2023-03-10T03:09:22.506Z,9.01
2023-03-10T03:11:49.501Z,9.04
2023-03-10T03:14:18.380Z,8.94
2023-03-10T03:16:45.933Z,9.12
2023-03-10T03:19:12.412Z,9.05
2023-03-10T03:21:39.126Z,9.01
2023-03-10T03:24:06.188Z,9.00
2023-03-10T03:26:32.630Z,9.07
2023-03-10T03:28:59.016Z,9.07
2023-03-10T03:31:26.240Z,9.13
2023-03-10T03:33:52.768Z,9.06
2023-03-10T03:36:19.297Z,9.05
2023-03-10T03:38:46.113Z,9.06
2023-03-10T03:41:12.616Z,8.95
2023-03-10T03:43:39.006Z,8.95
2023-03-10T03:46:05.951Z,8.92
2023-03-10T03:48:32.462Z,9.06
2023-03-10T03:50:58.883Z,9.05
2023-03-10T03:53:25.363Z,8.99
2023-03-10T03:55:51.717Z,8.93
2023-03-10T03:58:19.135Z,8.98
2023-03-10T04:00:45.503Z,8.91
2023-03-10T04:03:12.034Z,8.90
2023-03-10T04:05:38.824Z,8.91
2023-03-10T04:08:05.392Z,8.87
2023-03-10T04:10:31.812Z,8.83
2023-03-10T04:12:58.281Z,8.84
2023-03-10T04:15:25.187Z,8.86
2023-03-10T04:17:51.922Z,8.79
2023-03-10T04:20:18.734Z,8.73
2023-03-10T04:22:46.452Z,8.73
2023-03-10T04:25:12.853Z,8.75
2023-03-10T04:27:39.315Z,8.71
2023-03-10T04:30:06.329Z,8.68
2023-03-10T04:32:32.984Z,8.65
2023-03-10T04:35:00.980Z,8.67
2023-03-10T04:37:27.637Z,8.77
2023-03-10T04:39:54.559Z,8.78
2023-03-10T04:42:21.096Z,8.72
2023-03-10T04:44:47.483Z,8.52
2023-03-10T04:47:16.245Z,8.42
2023-03-10T04:49:42.695Z,8.51
2023-03-10T04:52:09.105Z,8.58
2023-03-10T04:54:35.620Z,8.64
2023-03-10T04:57:02.187Z,8.83
2023-03-10T04:59:28.595Z,8.75
2023-03-10T05:01:55.137Z,8.67
2023-03-10T05:04:21.809Z,8.67
2023-03-10T05:06:52.727Z,8.73
2023-03-10T05:09:19.066Z,8.93
2023-03-10T05:11:45.671Z,8.88
2023-03-10T05:14:13.397Z,8.87
2023-03-10T05:16:39.933Z,8.76
2023-03-10T05:19:06.327Z,8.81
2023-03-10T05:21:33.477Z,8.68
2023-03-10T05:23:59.998Z,8.58
2023-03-10T05:26:26.502Z,8.60
2023-03-10T05:28:52.879Z,8.68
2023-03-10T05:31:19.465Z,8.52
2023-03-10T05:33:45.873Z,8.48
2023-03-10T05:36:13.470Z,8.40
2023-03-10T05:38:40.174Z,8.39
2023-03-10T05:41:10.012Z,8.39
2023-03-10T05:43:38.165Z,8.35
2023-03-10T05:46:05.716Z,8.31
2023-03-10T05:48:32.561Z,8.37
2023-03-10T05:51:04.920Z,8.43
2023-03-10T05:53:32.875Z,8.47
2023-03-10T05:55:59.610Z,8.63
2023-03-10T05:58:27.267Z,8.74
2023-03-10T06:00:54.081Z,8.77
2023-03-10T06:03:20.799Z,9.02
2023-03-10T06:05:47.197Z,9.05
2023-03-10T06:08:13.924Z,9.11
2023-03-10T06:10:40.341Z,9.08
2023-03-10T06:13:07.406Z,8.97
2023-03-10T06:15:34.470Z,8.89
2023-03-10T06:18:00.890Z,8.82
2023-03-10T06:20:28.688Z,8.72
2023-03-10T06:22:55.197Z,8.69
2023-03-10T06:25:21.867Z,8.72
2023-03-10T06:27:48.369Z,8.72
2023-03-10T06:30:17.199Z,8.71
2023-03-10T06:32:43.925Z,8.69
2023-03-10T06:35:14.036Z,8.63
2023-03-10T06:37:41.064Z,8.60
2023-03-10T06:40:09.311Z,8.58
2023-03-10T06:42:35.877Z,8.62
2023-03-10T06:45:02.425Z,8.64
2023-03-10T06:47:29.884Z,8.65
2023-03-10T06:49:56.467Z,8.60
2023-03-10T06:52:22.839Z,8.53
2023-03-10T06:54:49.256Z,8.52
2023-03-10T06:57:15.700Z,8.43
2023-03-10T06:59:43.594Z,8.42
2023-03-10T07:02:12.850Z,8.46
2023-03-10T07:04:40.173Z,8.38
2023-03-10T07:07:06.873Z,8.53
2023-03-10T07:09:33.309Z,8.71
2023-03-10T07:12:00.154Z,8.84
2023-03-10T07:14:26.630Z,8.99
2023-03-10T07:16:53.088Z,9.19
2023-03-10T07:19:20.785Z,9.47
2023-03-10T07:21:47.375Z,9.42
2023-03-10T07:24:15.852Z,9.44
2023-03-10T07:26:42.847Z,9.60
2023-03-10T07:29:09.407Z,9.78
2023-03-10T07:31:36.826Z,9.79
2023-03-10T07:34:03.367Z,9.68
2023-03-10T07:36:30.263Z,9.76
2023-03-10T07:38:57.266Z,9.68
2023-03-10T07:41:23.643Z,9.72
2023-03-10T07:43:54.344Z,9.73
2023-03-10T07:46:21.189Z,9.79
2023-03-10T07:48:47.958Z,9.84
2023-03-10T07:51:15.276Z,9.85
2023-03-10T07:53:41.749Z,9.87
2023-03-10T07:56:10.676Z,9.81
2023-03-10T07:58:38.026Z,9.65
2023-03-10T08:01:05.355Z,9.59
2023-03-10T08:03:31.873Z,9.57
2023-03-10T08:05:58.348Z,9.77
2023-03-10T08:08:24.753Z,9.71
2023-03-10T08:11:00.281Z,9.78
2023-03-10T08:13:27.019Z,9.81
2023-03-10T08:15:53.543Z,9.82
2023-03-10T08:18:20.091Z,9.86
2023-03-10T08:20:46.621Z,9.81
2023-03-10T08:23:13.351Z,9.82
2023-03-10T08:25:40.428Z,9.75
2023-03-10T08:28:06.905Z,9.79
2023-03-10T08:30:33.364Z,9.70
2023-03-10T08:33:00.022Z,9.71
2023-03-10T08:35:26.569Z,9.61
2023-03-10T08:37:55.258Z,9.59
2023-03-10T08:40:22.282Z,9.34
2023-03-10T08:42:48.866Z,8.87
2023-03-10T08:45:15.332Z,8.47
2023-03-10T08:47:41.811Z,8.29
2023-03-10T08:50:10.954Z,8.31
2023-03-10T08:52:37.728Z,8.33
2023-03-10T08:55:05.306Z,8.29
2023-03-10T08:57:32.329Z,8.30
2023-03-10T08:59:58.924Z,8.36
2023-03-10T09:02:26.354Z,8.31
2023-03-10T09:04:52.839Z,8.14
2023-03-10T09:07:20.329Z,8.22
2023-03-10T09:09:46.839Z,8.37
2023-03-10T09:12:13.420Z,8.58
2023-03-10T09:14:40.005Z,8.71
2023-03-10T09:17:06.440Z,8.77
2023-03-10T09:19:33.286Z,8.99
2023-03-10T09:22:00.383Z,9.24
2023-03-10T09:24:27.193Z,9.64
2023-03-10T09:26:53.670Z,10.33
2023-03-10T09:29:23.062Z,10.44
2023-03-10T09:31:53.747Z,10.63
2023-03-10T09:34:20.261Z,10.69
2023-03-10T09:36:46.749Z,10.71
2023-03-10T09:39:13.417Z,10.56
2023-03-10T09:42:01.919Z,10.64
2023-03-10T09:44:42.520Z,10.78
2023-03-10T09:47:46.796Z,10.90
2023-03-10T09:50:13.141Z,10.88
2023-03-10T09:53:19.360Z,10.69
2023-03-10T09:55:48.618Z,10.64
2023-03-10T09:58:35.880Z,10.53
2023-03-10T10:01:06.162Z,10.33
2023-03-10T10:03:51.846Z,10.41
2023-03-10T10:06:30.536Z,10.40
2023-03-10T10:09:05.051Z,10.41
2023-03-10T10:11:32.777Z,10.48
2023-03-10T10:14:30.574Z,10.69
2023-03-10T10:17:21.179Z,10.43
2023-03-10T10:19:52.290Z,10.24
2023-03-10T10:22:36.939Z,10.08
2023-03-10T10:25:09.329Z,9.79
2023-03-10T10:27:40.377Z,9.93
2023-03-10T10:30:32.909Z,9.94
2023-03-10T10:33:03.335Z,10.04
2023-03-10T10:35:35.554Z,10.22
2023-03-10T10:38:10.735Z,10.47
2023-03-10T10:41:02.649Z,10.53
2023-03-10T10:43:31.139Z,10.43
2023-03-10T10:46:06.013Z,10.48
2023-03-10T10:48:48.156Z,10.27
2023-03-10T10:51:25.425Z,10.19
2023-03-10T10:53:52.125Z,10.20
2023-03-10T10:56:19.503Z,10.30
2023-03-10T10:59:05.446Z,10.34
2023-03-10T11:02:00.656Z,10.32
2023-03-10T11:04:41.220Z,10.37
2023-03-10T11:07:15.992Z,10.35
2023-03-10T11:09:42.519Z,10.25
2023-03-10T11:12:17.937Z,10.36
2023-03-10T11:15:04.111Z,10.60
2023-03-10T11:17:46.819Z,10.77
2023-03-10T11:20:40.761Z,10.97
2023-03-10T11:23:45.021Z,10.97
2023-03-10T11:26:31.551Z,10.85
2023-03-10T11:29:55.207Z,10.94
2023-03-10T11:32:30.830Z,10.84
2023-03-10T11:34:57.449Z,10.91
2023-03-10T11:37:34.568Z,10.90
2023-03-10T11:40:03.725Z,10.78
2023-03-10T11:43:01.398Z,10.55
2023-03-10T11:45:39.333Z,10.54
2023-03-10T11:48:24.905Z,10.39
2023-03-10T11:51:12.009Z,10.52
2023-03-10T11:53:43.487Z,10.51
2023-03-10T11:56:13.364Z,10.78
2023-03-10T11:59:15.336Z,10.84
2023-03-10T12:02:05.299Z,10.74
2023-03-10T12:04:54.506Z,10.68
2023-03-10T12:07:27.214Z,10.57
2023-03-10T12:09:57.559Z,10.54
2023-03-10T12:12:32.199Z,10.59
2023-03-10T12:15:10.247Z,10.53
2023-03-10T12:17:41.998Z,10.65
2023-03-10T12:20:16.388Z,10.59
2023-03-10T12:22:47.855Z,10.66
2023-03-10T12:25:29.686Z,10.75
2023-03-10T12:28:18.219Z,10.86
2023-03-10T12:31:02.556Z,10.89
2023-03-10T12:33:32.287Z,10.92
2023-03-10T12:36:37.785Z,10.92
2023-03-10T12:39:28.965Z,10.92
2023-03-10T12:41:57.082Z,10.93
2023-03-10T12:44:23.548Z,11.02
2023-03-10T12:47:13.203Z,10.82
2023-03-10T12:50:17.377Z,10.99
2023-03-10T12:52:43.962Z,10.84
2023-03-10T12:55:29.531Z,10.67
2023-03-10T12:58:04.991Z,10.66
2023-03-10T13:00:46.829Z,10.62
2023-03-10T13:03:41.140Z,10.67
2023-03-10T13:06:11.341Z,10.48
2023-03-10T13:08:55.043Z,10.61
2023-03-10T13:11:37.030Z,10.56
2023-03-10T13:14:19.580Z,10.50
2023-03-10T13:16:54.536Z,10.30
2023-03-10T13:19:23.347Z,10.42
2023-03-10T13:24:35.262Z,10.36
2023-03-10T13:27:24.002Z,10.12
2023-03-10T13:30:19.387Z,10.13
2023-03-10T13:33:01.782Z,10.04
2023-03-10T13:35:39.298Z,10.09
2023-03-10T13:38:28.489Z,10.27
2023-03-10T13:40:57.931Z,10.43
2023-03-10T13:43:37.950Z,10.54
2023-03-10T13:46:10.389Z,10.37
2023-03-10T13:48:38.178Z,10.20
2023-03-10T13:51:19.422Z,10.15
2023-03-10T13:53:50.037Z,10.03
2023-03-10T13:56:20.868Z,10.01
2023-03-10T13:58:48.872Z,9.86
2023-03-10T14:01:21.351Z,10.03
2023-03-10T14:04:02.622Z,10.03
2023-03-10T14:06:30.270Z,9.97
2023-03-10T14:09:22.211Z,10.06
2023-03-10T14:11:50.212Z,9.87
2023-03-10T14:14:34.746Z,9.74
2023-03-10T14:17:32.021Z,9.85
2023-03-10T14:19:58.599Z,9.78
2023-03-10T14:22:30.719Z,9.87
2023-03-10T14:25:01.687Z,9.70
2023-03-10T14:27:28.327Z,9.75
2023-03-10T14:29:58.087Z,9.86
2023-03-10T14:32:25.640Z,9.81
2023-03-10T14:34:52.369Z,9.81
2023-03-10T14:37:18.886Z,9.87
2023-03-10T14:39:45.440Z,9.82
2023-03-10T14:42:25.217Z,9.76
2023-03-10T14:44:52.950Z,9.79
2023-03-10T14:47:20.130Z,9.60
2023-03-10T14:49:46.923Z,9.54
2023-03-10T14:52:17.033Z,9.42
2023-03-10T14:54:43.899Z,9.33
2023-03-10T14:57:13.549Z,9.25
2023-03-10T14:59:41.465Z,9.11
2023-03-10T15:02:20.218Z,9.06
2023-03-10T15:04:46.860Z,9.11
2023-03-10T15:07:13.637Z,9.16
2023-03-10T15:09:40.088Z,9.22
2023-03-10T15:12:07.203Z,9.22
2023-03-10T15:14:33.923Z,9.20
2023-03-10T15:17:02.154Z,9.22
2023-03-10T15:19:29.971Z,9.19
2023-03-10T15:21:56.501Z,9.15
2023-03-10T15:24:23.367Z,9.12
2023-03-10T15:26:50.061Z,9.06
2023-03-10T15:29:21.320Z,8.93
2023-03-10T15:31:48.040Z,8.82
2023-03-10T15:34:19.647Z,8.85
2023-03-10T15:36:47.301Z,8.67
2023-03-10T15:39:21.861Z,8.61
2023-03-10T15:41:52.450Z,8.51
2023-03-10T15:44:18.832Z,8.54
2023-03-10T15:46:45.621Z,8.49
2023-03-10T15:49:13.346Z,8.50
2023-03-10T15:51:40.078Z,8.55
2023-03-10T15:54:06.564Z,8.52
2023-03-10T15:56:34.650Z,8.52
2023-03-10T15:59:01.201Z,8.40
2023-03-10T16:01:27.762Z,8.44
2023-03-10T16:03:55.431Z,8.32
2023-03-10T16:06:29.169Z,8.30
2023-03-10T16:08:56.312Z,8.16
2023-03-10T16:11:22.736Z,8.15
2023-03-10T16:13:49.277Z,8.25
2023-03-10T16:16:17.647Z,8.26
2023-03-10T16:18:45.545Z,8.20
2023-03-10T16:21:16.813Z,8.21
2023-03-10T16:23:44.584Z,8.19
2023-03-10T16:26:16.978Z,8.19
2023-03-10T16:28:47.335Z,8.30
2023-03-10T16:31:15.921Z,8.37
2023-03-10T16:33:43.024Z,8.39
2023-03-10T16:36:14.214Z,8.36
2023-03-10T16:38:41.014Z,8.32
2023-03-10T16:41:09.481Z,8.16
2023-03-10T16:43:36.441Z,8.16
2023-03-10T16:46:07.289Z,8.16
2023-03-10T16:48:34.339Z,8.07
2023-03-10T16:51:06.893Z,7.98
2023-03-10T16:53:35.121Z,7.95
2023-03-10T16:56:05.064Z,7.90
2023-03-10T16:58:33.923Z,7.78
2023-03-10T17:01:00.653Z,7.76
2023-03-10T17:03:27.579Z,7.63
2023-03-10T17:05:54.340Z,7.40
2023-03-10T17:08:21.622Z,7.21
2023-03-10T17:10:48.824Z,7.11
2023-03-10T17:13:15.437Z,7.05
2023-03-10T17:15:41.980Z,7.04
2023-03-10T17:18:08.420Z,7.10
2023-03-10T17:20:34.766Z,7.11
2023-03-10T17:23:01.366Z,7.10
2023-03-10T17:25:28.189Z,7.00
2023-03-10T17:27:54.672Z,7.01
2023-03-10T17:30:21.271Z,7.03
2023-03-10T17:32:48.551Z,7.00
2023-03-10T17:35:15.154Z,6.94
2023-03-10T17:37:43.163Z,6.87
2023-03-10T17:40:11.787Z,6.88
2023-03-10T17:42:38.204Z,6.82
2023-03-10T17:45:06.828Z,6.75
2023-03-10T17:47:33.421Z,6.72
2023-03-10T17:49:59.892Z,6.66
2023-03-10T17:52:26.829Z,6.57
2023-03-10T17:54:53.386Z,6.56
2023-03-10T17:57:19.832Z,6.44
2023-03-10T17:59:46.475Z,6.36
2023-03-10T18:02:12.948Z,6.31
2023-03-10T18:04:39.805Z,6.29
2023-03-10T18:07:06.360Z,6.30
2023-03-10T18:09:32.714Z,6.34
2023-03-10T18:11:59.212Z,6.35
2023-03-10T18:14:25.769Z,6.37
2023-03-10T18:16:52.525Z,6.35
2023-03-10T18:19:19.307Z,6.42
2023-03-10T18:21:45.738Z,6.43
2023-03-10T18:24:12.345Z,6.36
2023-03-10T18:26:39.454Z,6.35
2023-03-10T18:29:06.142Z,6.33
2023-03-10T18:31:36.180Z,6.29
2023-03-10T18:34:04.979Z,6.12
2023-03-10T18:36:33.033Z,6.05
2023-03-10T18:39:01.148Z,5.95
2023-03-10T18:41:28.136Z,5.92
2023-03-10T18:43:54.507Z,5.83
2023-03-10T18:46:21.366Z,5.75
2023-03-10T18:48:48.490Z,5.72
2023-03-10T18:51:15.017Z,5.67
2023-03-10T18:53:41.767Z,5.66
2023-03-10T18:56:10.171Z,5.64
2023-03-10T18:58:36.957Z,5.63
2023-03-10T19:01:08.914Z,5.60
2023-03-10T19:03:35.426Z,5.62
2023-03-10T19:06:01.855Z,5.60
2023-03-10T19:08:29.406Z,5.53
2023-03-10T19:10:57.370Z,5.43
2023-03-10T19:13:28.622Z,5.30
2023-03-10T19:15:56.189Z,4.97
2023-03-10T19:18:24.297Z,4.80
2023-03-10T19:20:53.007Z,4.79
2023-03-10T19:23:19.351Z,4.81
2023-03-10T19:25:45.718Z,4.81
2023-03-10T19:28:12.560Z,4.90
2023-03-10T19:30:41.798Z,4.91
2023-03-10T19:33:09.801Z,4.99
2023-03-10T19:35:37.024Z,5.09
2023-03-10T19:38:04.138Z,5.21
2023-03-10T19:40:30.500Z,5.20
2023-03-10T19:42:57.210Z,5.30
2023-03-10T19:45:23.764Z,5.26
2023-03-10T19:47:50.192Z,5.13
2023-03-10T19:50:19.464Z,5.10
2023-03-10T19:52:47.762Z,5.10
2023-03-10T19:55:16.516Z,5.07
2023-03-10T19:57:42.958Z,4.99
2023-03-10T20:00:12.953Z,4.92
2023-03-10T20:02:42.375Z,4.94
2023-03-10T20:05:09.705Z,5.02
2023-03-10T20:07:36.494Z,5.07
2023-03-10T20:10:03.460Z,5.03
2023-03-10T20:12:29.864Z,4.93
2023-03-10T20:14:56.424Z,4.68
2023-03-10T20:17:22.858Z,4.41
2023-03-10T20:19:49.251Z,4.08
2023-03-10T20:22:15.887Z,3.92
2023-03-10T20:24:42.398Z,3.88
2023-03-10T20:27:08.818Z,3.79
2023-03-10T20:29:36.813Z,3.88
2023-03-10T20:32:04.759Z,3.94
2023-03-10T20:34:32.290Z,4.03
2023-03-10T20:36:59.606Z,4.04
2023-03-10T20:39:29.162Z,4.11
2023-03-10T20:41:55.961Z,4.16
2023-03-10T20:44:23.775Z,4.09
2023-03-10T20:46:53.273Z,4.06
2023-03-10T20:49:19.828Z,4.07
2023-03-10T20:51:46.491Z,4.07
2023-03-10T20:54:12.964Z,4.08
2023-03-10T20:56:39.526Z,4.09
2023-03-10T20:59:06.693Z,4.16
2023-03-10T21:01:33.419Z,4.15
2023-03-10T21:04:00.611Z,4.08
2023-03-10T21:06:27.119Z,3.83
2023-03-10T21:08:54.256Z,3.24
2023-03-10T21:11:21.430Z,2.93
2023-03-10T21:13:47.813Z,2.93
2023-03-10T21:16:15.609Z,2.94
2023-03-10T21:18:44.472Z,2.93
2023-03-10T21:21:10.831Z,2.95
2023-03-10T21:23:41.433Z,2.92
2023-03-10T21:26:20.766Z,2.91
2023-03-10T21:28:47.784Z,2.91
2023-03-10T21:31:15.156Z,2.98
2023-03-10T21:33:41.731Z,3.02
2023-03-10T21:36:13.889Z,3.04
2023-03-10T21:38:40.275Z,3.09
2023-03-10T21:41:06.721Z,3.11
2023-03-10T21:43:33.128Z,3.19
2023-03-10T21:45:59.598Z,3.20
2023-03-10T21:48:26.127Z,3.22
2023-03-10T21:50:52.653Z,3.21
2023-03-10T21:53:19.111Z,3.20
2023-03-10T21:55:46.135Z,3.28
2023-03-10T21:58:12.779Z,3.27
2023-03-10T22:00:41.079Z,3.26
2023-03-10T22:03:07.721Z,3.27
2023-03-10T22:05:34.737Z,3.23
2023-03-10T22:08:01.116Z,3.26
2023-03-10T22:10:27.500Z,3.26
2023-03-10T22:12:56.495Z,3.24
2023-03-10T22:15:26.543Z,3.25
2023-03-10T22:17:54.244Z,3.26
2023-03-10T22:20:26.504Z,3.23
2023-03-10T22:22:53.976Z,3.25
2023-03-10T22:25:21.302Z,3.25
2023-03-10T22:27:53.590Z,3.24
2023-03-10T22:30:22.657Z,3.18
2023-03-10T22:32:49.367Z,3.20
2023-03-10T22:35:16.681Z,3.22
2023-03-10T22:37:43.103Z,3.16
2023-03-10T22:40:14.525Z,3.15
2023-03-10T22:42:42.153Z,3.11
2023-03-10T22:45:18.813Z,3.07
2023-03-10T22:47:46.486Z,3.02
2023-03-10T22:50:16.146Z,2.98
2023-03-10T22:52:42.749Z,2.96
2023-03-10T22:55:12.838Z,2.92
2023-03-10T22:57:40.656Z,2.89
2023-03-10T23:00:10.998Z,2.85
2023-03-10T23:02:39.274Z,2.83
2023-03-10T23:05:06.297Z,2.81
2023-03-10T23:07:33.021Z,2.77
2023-03-10T23:09:59.509Z,2.75
2023-03-10T23:12:26.508Z,2.74
2023-03-10T23:14:55.173Z,2.71
2023-03-10T23:17:21.506Z,2.73
2023-03-10T23:19:47.856Z,2.72
2023-03-10T23:22:14.194Z,2.70
2023-03-10T23:24:40.545Z,2.67
2023-03-10T23:27:06.925Z,2.66
2023-03-10T23:29:33.383Z,2.62
2023-03-10T23:32:00.024Z,2.55
2023-03-10T23:34:26.430Z,2.50
2023-03-10T23:36:52.832Z,2.46
2023-03-10T23:39:19.302Z,2.41
2023-03-10T23:41:45.725Z,2.37
2023-03-10T23:44:12.915Z,2.36
2023-03-10T23:46:39.272Z,2.29
2023-03-10T23:49:05.652Z,2.23
2023-03-10T23:51:31.996Z,2.25
2023-03-10T23:53:58.684Z,2.34
2023-03-10T23:56:25.125Z,2.34
2023-03-10T23:58:51.855Z,2.42
